• Join FlightAware (Why Join?)
  • Login
  • US Flag 
04:17PM EDT


 

Airport Tracker/Info


-or-


 

Live Flight TrackerFlight Track Log ✈ ACA831 ✈ 06-May-2013 ✈ LSGG / GVA - CYUL

Flight Track Log - Related Links

Times and Time Zones

All times are in EDT time to prevent confusion due to time zone crossing. See the ACA831 flight status page for this flight to view local times or setup timezone preferences in your user account.

Time Position Orientation Groundspeed Altitude Reporting Facility
EDT Latitude Longitude Course Direction KTS MPH feet Rate Location/Type
06:34AM 46.2420 6.1140 44° Northeast 171 197 1,400  Level FlightAware
06:35AM 46.2650 6.1530 50° Northeast 179 206 3,200 2,280 Climbing FlightAware
06:35AM 46.2830 6.1780 44° Northeast 186 214 4,300 1,800 Climbing FlightAware
06:36AM 46.3010 6.2020 43° Northeast 213 245 4,900 1,500 Climbing FlightAware
06:36AM 46.3220 6.2330 46° Northeast 242 278 5,700 1,800 Climbing FlightAware
06:37AM 46.3450 6.2680 46° Northeast 266 306 6,700 2,640 Climbing FlightAware
06:37AM 46.3690 6.2970 40° Northeast 277 319 7,900 3,060 Climbing FlightAware
06:37AM 46.3850 6.3030 15° North 281 323 8,500 3,420 Climbing FlightAware
06:37AM 46.4190 6.2830 338° Northwest 279 321 9,900 2,460 Climbing FlightAware
06:38AM 46.4520 6.2190 307° West 319 367 11,000 1,380 Climbing FlightAware
06:39AM 46.4890 6.1420 305° West 367 422 11,800 1,680 Climbing FlightAware
06:40AM 46.5410 6.0350 305° West 393 452 13,600 2,460 Climbing FlightAware
06:40AM 46.5890 5.9370 306° West 396 456 15,700 2,460 Climbing FlightAware
06:41AM 46.6330 5.8470 305° West 407 468 17,300 2,220 Climbing FlightAware
06:42AM 46.6800 5.7510 306° West 419 482 18,900 2,220 Climbing FlightAware
06:43AM 46.7350 5.6360 305° West 435 501 20,500 1,920 Climbing FlightAware
06:43AM 46.7870 5.5340 307° West 448 516 21,800 1,740 Climbing FlightAware
06:44AM 46.8470 5.4430 314° West 459 528 23,000 1,620 Climbing FlightAware
06:45AM 46.9050 5.3590 315° West 468 539 24,000 1,500 Climbing FlightAware
06:45AM 46.9828 5.2463 315° West 25,300 1,560 Climbing FlightAware ADS-B
06:46AM 47.0308 5.1772 316° Northwest 481 554 26,000 1,380 Climbing FlightAware ADS-B
06:46AM 47.0827 5.1023 316° Northwest 491 565 26,800 1,620 Climbing FlightAware ADS-B
06:47AM 47.1790 4.9620 315° West 492 566 28,600 1,800 Climbing FlightAware
06:48AM 47.2440 4.8680 316° Northwest 487 560 29,900 2,040 Climbing FlightAware
06:49AM 47.3130 4.7670 315° West 476 548 31,500 1,560 Climbing FlightAware
06:49AM 47.3680 4.6860 315° West 470 541 32,000 300 Climbing FlightAware
06:50AM 47.4420 4.5760 315° West 465 535 32,000  Level FlightAware
06:51AM 47.5040 4.4840 315° West 467 537 32,000  Level FlightAware
06:52AM 47.5760 4.3780 315° West 470 541 32,000  Level FlightAware
06:52AM 47.6350 4.2880 314° West 472 543 32,000  Level FlightAware
06:53AM 47.6760 4.2100 308° West 471 542 32,000  Level FlightAware
06:54AM 47.7430 4.0670 305° West 471 542 32,000  Level FlightAware
06:54AM 47.7918 3.9598 304° West 472 543 32,000  Level FlightAware ADS-B
06:55AM 47.8339 3.8659 304° West 468 539 32,000  Level FlightAware ADS-B
06:56AM 47.8698 3.7845 303° West 466 536 32,000  Level FlightAware ADS-B
06:56AM 47.9114 3.6908 304° West 466 536 32,000  Level FlightAware ADS-B
06:57AM 47.9621 3.5897 307° West 471 542 32,000  Level FlightAware ADS-B
06:57AM 47.9894 3.5585 323° Northwest 473 544 32,000  Level FlightAware ADS-B
06:57AM 48.0336 3.5262 334° Northwest 476 548 32,000  Level FlightAware ADS-B
06:58AM 48.0989 3.4848 337° Northwest 478 550 32,000  Level FlightAware ADS-B
06:58AM 48.1631 3.4455 338° Northwest 480 552 32,000  Level FlightAware ADS-B
06:59AM 48.2730 3.3780 338° Northwest 485 558 32,000  Level FlightAware
07:00AM 48.3570 3.3260 338° Northwest 488 562 32,000  Level FlightAware
07:01AM 48.4520 3.2670 338° Northwest 488 562 32,000  Level FlightAware
07:01AM 48.5178 3.2245 337° Northwest 490 564 32,000  Level FlightAware ADS-B
07:02AM 48.5838 3.1836 338° Northwest 491 565 32,000  Level FlightAware ADS-B
07:02AM 48.6480 3.1439 338° Northwest 491 565 32,000  Level FlightAware ADS-B
07:03AM 48.7140 3.1027 338° Northwest 491 565 32,000  Level FlightAware ADS-B
07:03AM 48.7877 3.0569 338° Northwest 490 564 32,000  Level FlightAware ADS-B
07:04AM 48.8510 3.0170 337° Northwest 490 564 32,000  Level FlightAware ADS-B
07:04AM 48.9156 2.9763 338° Northwest 487 560 32,000 60 Level FlightAware ADS-B
07:05AM 48.9822 2.9341 337° Northwest 486 559 32,100 420 Climbing FlightAware ADS-B
07:06AM 49.0473 2.8927 337° Northwest 476 548 32,500 660 Climbing FlightAware ADS-B
07:06AM 49.1191 2.8471 337° Northwest 472 543 32,900 660 Climbing FlightAware ADS-B
07:07AM 49.1819 2.8071 337° Northwest 468 539 33,300 660 Climbing FlightAware ADS-B
07:07AM 49.2572 2.7588 337° Northwest 469 540 33,700 -1,080 Climbing FlightAware ADS-B
07:08AM 49.2955 2.7360 337° Northwest 1 1 32,300 420 Descending FlightAware UK
07:08AM 49.3389 2.7063 337° Northwest 477 549 34,000 1,920 Climbing FlightAware ADS-B
07:08AM 49.4035 2.6647 337° Northwest 476 548 34,000 -1,800 Level FlightAware ADS-B
07:09AM 49.4411 2.6400 337° Northwest 1 1 32,500  Descending FlightAware UK
07:09AM 49.4796 2.6156 337° Northwest 472 543 34,000  Climbing FlightAware ADS-B
07:09AM 49.5260 2.5859 337° Northwest 464 534 32,500  Descending FlightAware UK
07:10AM 49.5454 2.5731 337° Northwest 470 541 34,000  Climbing FlightAware ADS-B
07:10AM 49.5861 2.5471 337° Northwest 464 534 32,500  Descending FlightAware UK
07:10AM 49.6098 2.5312 337° Northwest 469 540 34,000 1,860 Climbing FlightAware ADS-B
07:11AM 49.6811 2.4846 337° Northwest 466 536 34,000 -1,680 Level FlightAware ADS-B
07:11AM 49.7173 2.4615 337° Northwest 460 529 32,500  Descending FlightAware UK
07:11AM 49.7438 2.4436 337° Northwest 465 535 34,000  Climbing FlightAware ADS-B
07:12AM 49.7764 2.4229 337° Northwest 458 527 32,500  Descending FlightAware UK
07:12AM 49.8063 2.4026 337° Northwest 463 533 34,000 1,800 Climbing FlightAware ADS-B
07:12AM 49.8751 2.3574 337° Northwest 463 533 34,000 -1,740 Level FlightAware ADS-B
07:13AM 49.9172 2.3296 337° Northwest 458 527 32,400  Descending FlightAware UK
07:13AM 49.9361 2.3172 337° Northwest 462 532 34,000  Climbing FlightAware ADS-B
07:13AM 49.9764 2.2905 337° Northwest 458 527 32,400  Descending FlightAware UK
07:14AM 50.0420 2.2472 337° Northwest 462 532 34,000 120 Climbing FlightAware ADS-B
07:14AM 50.0704 2.2283 337° Northwest 460 529 32,500  Descending FlightAware UK
07:14AM 50.1033 2.2064 337° Northwest 461 531 34,000 2,640 Climbing FlightAware ADS-B
07:15AM 50.1378 2.1833 337° Northwest 461 531 34,000  Level FlightAware ADS-B
07:15AM 50.1634 2.1662 337° Northwest 461 531 34,000 -2,820 Level FlightAware ADS-B
07:15AM 50.1997 2.1419 337° Northwest 454 522 32,500  Descending FlightAware UK
07:15AM 50.2240 2.1260 337° Northwest 462 532 34,000 3,060 Climbing FlightAware
07:16AM 50.2558 2.1045 337° Northwest 463 533 34,000 -3,120 Level FlightAware ADS-B
07:16AM 50.2929 2.0777 337° Northwest 456 525 32,400  Descending FlightAware UK
07:16AM 50.3120 2.0520 337° Northwest 465 535 34,000 2,040 Climbing FlightAware
07:17AM 50.3597 1.9619 310° West 465 535 34,000  Level FlightAware ADS-B
07:18AM 50.4120 1.8190 300° West 470 541 34,000  Level FlightAware
07:18AM 50.4360 1.7514 299° West 465 535 34,000  Level FlightAware ADS-B
07:18AM 50.4408 1.7378 299° West 470 541 34,000  Level FlightAware ADS-B
07:19AM 50.4824 1.6200 299° West 470 541 34,000  Level FlightAware ADS-B
07:20AM 50.5363 1.4678 299° West 34,000  Level FlightAware ADS-B
07:20AM 50.5670 1.3861 301° West 465 535 34,000  Level FlightAware ADS-B
07:21AM 50.6047 1.2865 301° West 464 534 34,000 -1,860 Level FlightAware ADS-B
07:21AM 50.6240 1.2345 301° West 468 539 32,400  Descending FlightAware UK
07:21AM 50.6380 1.1972 301° West 462 532 34,000  Climbing FlightAware ADS-B
07:21AM 50.6564 1.1478 301° West 466 536 32,400  Descending FlightAware UK
07:22AM 50.6871 1.0643 301° West 459 528 34,000  Climbing FlightAware ADS-B
07:22AM 50.7136 0.9923 301° West 464 534 32,400  Descending FlightAware UK
07:22AM 50.7194 0.9760 301° West 457 526 34,000  Climbing FlightAware ADS-B
07:23AM 50.7389 0.9232 301° West 462 532 32,400  Descending FlightAware UK
07:23AM 50.7532 0.8839 301° West 456 525 34,000  Climbing FlightAware ADS-B
07:23AM 50.7764 0.8202 301° West 460 529 32,400  Descending FlightAware UK
07:23AM 50.7849 0.7970 301° West 456 525 34,000 2,520 Climbing FlightAware ADS-B
07:24AM 50.8163 0.7109 300° West 454 522 34,000 -1,980 Level FlightAware ADS-B
07:24AM 50.8328 0.6650 300° West 460 529 32,500  Descending FlightAware UK
07:24AM 50.8498 0.6181 300° West 454 522 34,000  Climbing FlightAware ADS-B
07:25AM 50.8701 0.5616 300° West 456 525 32,500  Descending FlightAware UK
07:25AM 50.8824 0.5280 300° West 454 522 34,000 2,460 Climbing FlightAware ADS-B
07:25AM 50.9069 0.4590 299° West 453 521 34,000  Level FlightAware ADS-B
07:26AM 50.9182 0.4155 292° West 454 522 34,000  Level FlightAware ADS-B
07:26AM 50.9230 0.3900 287° West 455 524 34,000 -3,360 Level FlightAware ADS-B
07:26AM 50.9346 0.3266 287° West 458 527 32,500  Descending FlightAware UK
07:26AM 50.9410 0.2930 287° West 454 522 34,000  Climbing FlightAware ADS-B
07:27AM 50.9527 0.2313 287° West 458 527 32,500  Descending FlightAware UK
07:27AM 50.9594 0.1952 287° West 455 524 34,000 2,040 Climbing FlightAware ADS-B
07:27AM 50.9777 0.0975 287° West 454 522 34,000 -1,920 Level FlightAware ADS-B
07:28AM 50.9884 0.0406 287° West 462 532 32,500  Descending FlightAware UK
07:28AM 50.9965 -0.0031 287° West 454 522 34,000 1,920 Climbing FlightAware ADS-B
07:28AM 51.0156 -0.1028 287° West 453 521 34,000  Level FlightAware ADS-B
07:29AM 51.0345 -0.2008 287° West 452 520 34,000  Level FlightAware ADS-B
07:29AM 51.0433 -0.2389 290° West 452 520 34,000  Level FlightAware ADS-B
07:30AM 51.0671 -0.3329 292° West 449 517 34,000  Level FlightAware ADS-B
07:30AM 51.0904 -0.4260 292° West 448 516 34,000  Level FlightAware ADS-B
07:31AM 51.1157 -0.5254 292° West 447 514 34,000  Level FlightAware ADS-B
07:31AM 51.1401 -0.6203 292° West 446 513 34,000  Level FlightAware ADS-B
07:32AM 51.1647 -0.7163 292° West 445 512 34,000  Level FlightAware ADS-B
07:32AM 51.1881 -0.8080 292° West 445 512 34,000  Level FlightAware ADS-B
07:33AM 51.2114 -0.8994 292° West 445 512 34,000  Level FlightAware ADS-B
07:33AM 51.2344 -0.9906 292° West 445 512 34,000 -1,740 Level FlightAware ADS-B
07:34AM 51.2521 -1.0607 292° West 460 529 32,500  Descending FlightAware UK
07:34AM 51.2577 -1.0829 292° West 445 512 34,000 2,220 Climbing FlightAware ADS-B
07:34AM 51.2818 -1.1789 292° West 445 512 34,000  Level FlightAware ADS-B
07:35AM 51.3047 -1.2712 292° West 444 511 34,000  Level FlightAware ADS-B
07:35AM 51.3274 -1.3636 292° West 444 511 34,000 -1,800 Level FlightAware ADS-B
07:36AM 51.3426 -1.4247 292° West 464 534 32,500  Descending FlightAware UK
07:36AM 51.3510 -1.4584 292° West 444 511 34,000 2,100 Climbing FlightAware ADS-B
07:36AM 51.3735 -1.5499 292° West 443 510 34,000  Level FlightAware ADS-B
07:37AM 51.3970 -1.6459 291° West 442 509 34,000  Level FlightAware ADS-B
07:37AM 51.4195 -1.7382 291° West 441 507 34,000  Level FlightAware ADS-B
07:38AM 51.4421 -1.8311 291° West 441 507 34,000 -1,980 Level FlightAware ADS-B
07:38AM 51.4539 -1.8796 291° West 466 536 32,500  Descending FlightAware UK
07:38AM 51.4647 -1.9244 291° West 439 505 34,000  Climbing FlightAware ADS-B
07:39AM 51.4757 -1.9699 291° West 466 536 32,500  Descending FlightAware UK
07:39AM 51.4875 -2.0192 291° West 438 504 34,000 1,860 Climbing FlightAware ADS-B
07:39AM 51.5098 -2.1123 291° West 438 504 34,000 -1,800 Level FlightAware ADS-B
07:40AM 51.5236 -2.1695 291° West 462 532 32,500  Descending FlightAware UK
07:40AM 51.5320 -2.2053 291° West 437 503 34,000 2,040 Climbing FlightAware ADS-B
07:40AM 51.5541 -2.2983 291° West 436 502 34,000  Level FlightAware ADS-B
07:41AM 51.5763 -2.3923 291° West 436 502 34,000 -1,860 Level FlightAware ADS-B
07:41AM 51.5920 -2.4586 291° West 458 527 32,400  Descending FlightAware UK
07:41AM 51.5985 -2.4862 291° West 436 502 34,000 2,400 Climbing FlightAware ADS-B
07:42AM 51.6200 -2.5782 291° West 436 502 34,000 -1,800 Level FlightAware ADS-B
07:42AM 51.6344 -2.6396 291° West 458 527 32,500  Descending FlightAware UK
07:42AM 51.6414 -2.6695 291° West 437 503 34,000 2,160 Climbing FlightAware ADS-B
07:43AM 51.6632 -2.7629 291° West 437 503 34,000 -1,620 Level FlightAware ADS-B
07:43AM 51.6808 -2.8392 291° West 458 527 32,500  Descending FlightAware UK
07:44AM 51.6904 -2.8812 291° West 438 504 34,000  Climbing FlightAware ADS-B
07:44AM 51.7018 -2.9305 291° West 460 529 32,500 -2,700 Descending FlightAware UK
07:44AM 51.7145 -2.9854 290° West 460 529 32,500 3,900 Level FlightAware UK
07:44AM 51.7160 -2.9900 290° West 437 503 34,000 4,500 Climbing FlightAware
07:44AM 51.7282 -3.0451 290° West 437 503 34,000 -2,460 Level FlightAware ADS-B
07:45AM 51.7437 -3.1128 290° West 460 529 32,500  Descending FlightAware UK
07:45AM 51.7504 -3.1423 290° West 437 503 34,000  Climbing FlightAware ADS-B
07:45AM 51.7648 -3.2043 290° West 462 532 32,500  Descending FlightAware UK
07:45AM 51.7707 -3.2342 290° West 436 502 34,000  Climbing FlightAware ADS-B
07:46AM 51.7817 -3.2971 290° West 462 532 32,500 -2,100 Descending FlightAware UK
07:46AM 51.7921 -3.3730 283° West 460 529 32,500 3,180 Level FlightAware UK
07:46AM 51.7920 -3.3720 283° West 434 499 34,000  Climbing FlightAware
07:47AM 51.8026 -3.4883 283° West 460 529 32,500  Descending FlightAware UK
07:47AM 51.8040 -3.5060 283° West 434 499 34,000  Climbing FlightAware
07:47AM 51.8088 -3.5653 283° West 462 532 32,500 -2,280 Descending FlightAware UK
07:48AM 51.8151 -3.6423 278° West 462 532 32,500 3,060 Level FlightAware UK
07:48AM 51.8160 -3.6540 278° West 434 499 34,000  Climbing FlightAware
07:48AM 51.8214 -3.7194 278° West 462 532 32,500  Descending FlightAware UK
07:48AM 51.8260 -3.7800 278° West 435 501 34,000  Climbing FlightAware
07:49AM 51.8319 -3.8544 278° West 462 532 32,500 -2,340 Descending FlightAware UK
07:49AM 51.8364 -3.9124 277° West 462 532 32,500  Level FlightAware UK
07:49AM 51.8423 -3.9889 277° West 462 532 32,500  Level FlightAware UK
07:50AM 51.8482 -4.0661 277° West 462 532 32,500  Level FlightAware UK
07:51AM 51.8586 -4.2009 277° West 462 532 32,500  Level FlightAware UK
07:51AM 51.8633 -4.2586 277° West 462 532 32,500  Level FlightAware UK
07:52AM 51.8887 -4.4876 280° West 460 529 32,500  Level FlightAware UK
07:52AM 51.9020 -4.5425 292° West 462 532 32,500  Level FlightAware UK
07:53AM 51.9185 -4.5948 297° West 460 529 32,500  Level FlightAware UK
07:53AM 51.9400 -4.6657 296° West 462 532 32,500  Level FlightAware UK
07:53AM 51.9562 -4.7185 296° West 462 532 32,500  Level FlightAware UK
07:54AM 51.9778 -4.7889 297° West 462 532 32,500  Level FlightAware UK
07:54AM 51.9939 -4.8411 297° West 462 532 32,500  Level FlightAware UK
07:54AM 52.0102 -4.8939 297° West 462 532 32,500 3,300 Level FlightAware UK
07:54AM 52.0160 -4.9110 297° West 438 504 34,000  Climbing FlightAware
07:55AM 52.0321 -4.9644 297° West 462 532 32,500 -2,760 Descending FlightAware UK
07:55AM 52.0483 -5.0173 297° West 462 532 32,500 3,600 Level FlightAware UK
07:55AM 52.0520 -5.0300 297° West 438 504 34,000  Climbing FlightAware
07:55AM 52.0697 -5.0880 297° West 462 532 32,500 -2,580 Descending FlightAware UK
07:56AM 52.0854 -5.1414 296° West 462 532 32,500 3,180 Level FlightAware UK
07:56AM 52.0920 -5.1660 296° West 438 504 34,000  Climbing FlightAware
07:56AM 52.1111 -5.2307 296° West 462 532 32,500 -2,400 Descending FlightAware UK
07:57AM 52.1269 -5.2839 296° West 462 532 32,500 4,500 Level FlightAware UK
07:57AM 52.1280 -5.2840 296° West 441 507 34,000  Climbing FlightAware
07:57AM 52.1511 -5.3296 296° West 462 532 32,500 -2,700 Descending FlightAware UK
07:57AM 52.1739 -5.3765 308° West 462 532 32,500 3,720 Level FlightAware UK
07:57AM 52.1790 -5.3870 308° West 441 507 34,000  Climbing FlightAware
07:58AM 52.2042 -5.4391 308° West 460 529 32,500 -2,520 Descending FlightAware UK
07:58AM 52.2261 -5.4868 307° West 460 529 32,500 3,300 Level FlightAware UK
07:58AM 52.2330 -5.5040 307° West 441 507 34,000  Climbing FlightAware
07:58AM 52.2616 -5.5678 307° West 462 532 32,500 -2,340 Descending FlightAware UK
07:59AM 52.2828 -5.6165 305° West 460 529 32,500 3,720 Level FlightAware UK
07:59AM 52.2880 -5.6280 305° West 440 506 34,000  Climbing FlightAware
07:59AM 52.3110 -5.6816 305° West 462 532 32,500 -2,520 Descending FlightAware UK
07:59AM 52.3339 -5.7285 309° West 460 529 32,500 4,080 Level FlightAware UK
07:59AM 52.3350 -5.7310 309° West 441 507 34,000  Climbing FlightAware
08:00AM 52.3639 -5.7917 309° West 460 529 32,500 -2,400 Descending FlightAware UK
08:00AM 52.3865 -5.8394 308° West 460 529 32,500 3,600 Level FlightAware UK
08:00AM 52.3920 -5.8520 308° West 442 509 34,000  Climbing FlightAware
08:00AM 52.4163 -5.9029 308° West 460 529 32,500 -2,400 Descending FlightAware UK
08:01AM 52.4388 -5.9504 308° West 460 529 32,600 4,140 Climbing FlightAware UK
08:01AM 52.4410 -5.9550 308° West 441 507 34,100 480 Climbing FlightAware
08:01AM 52.4688 -6.0136 308° West 456 525 32,800 -1,980 Descending FlightAware UK
08:01AM 52.4908 -6.0604 308° West 456 525 32,900 300 Climbing FlightAware UK
08:02AM 52.5129 -6.1077 308° West 454 522 33,000 480 Climbing FlightAware UK
08:02AM 52.5353 -6.1545 308° West 454 522 33,200 480 Climbing FlightAware UK
08:02AM 52.5576 -6.2017 308° West 456 525 33,300 480 Climbing FlightAware UK
08:03AM 52.5797 -6.2491 307° West 456 525 33,500 660 Climbing FlightAware UK
08:03AM 52.6017 -6.2969 307° West 458 527 33,700 480 Climbing FlightAware UK
08:03AM 52.6238 -6.3447 307° West 458 527 33,800 480 Climbing FlightAware UK
08:04AM 52.6460 -6.3926 307° West 458 527 34,000 4,080 Climbing FlightAware UK
08:04AM 52.6500 -6.4000 307° West 441 507 35,500 240 Climbing FlightAware
08:04AM 52.6756 -6.4565 307° West 458 527 34,100 -2,100 Descending FlightAware UK
08:04AM 52.6978 -6.5045 307° West 458 527 34,300 4,380 Climbing FlightAware UK
08:04AM 52.7010 -6.5110 307° West 439 505 35,800 240 Climbing FlightAware
08:05AM 52.7270 -6.5687 307° West 458 527 34,400 -2,280 Descending FlightAware UK
08:05AM 52.7490 -6.6169 307° West 458 527 34,400 4,560 Level FlightAware UK
08:05AM 52.7490 -6.6180 307° West 441 507 36,000  Climbing FlightAware
08:05AM 52.7709 -6.6653 307° West 460 529 34,400 -2,940 Descending FlightAware UK
08:06AM 52.7929 -6.7138 307° West 462 532 34,400 3,180 Level FlightAware UK
08:06AM 52.8060 -6.7420 307° West 444 511 36,000  Climbing FlightAware
08:06AM 52.8298 -6.7950 307° West 462 532 34,400 -2,700 Descending FlightAware UK
08:06AM 52.8519 -6.8437 307° West 460 529 34,400 4,320 Level FlightAware UK
08:06AM 52.8550 -6.8510 307° West 443 510 36,000  Climbing FlightAware
08:07AM 52.8813 -6.9089 307° West 458 527 34,400 -2,580 Descending FlightAware UK
08:07AM 52.9033 -6.9578 307° West 458 527 34,400 4,800 Level FlightAware UK
08:07AM 52.9030 -6.9570 307° West 443 510 36,000  Climbing FlightAware
08:07AM 52.9253 -7.0067 307° West 458 527 34,400 -2,880 Descending FlightAware UK
08:08AM 52.9473 -7.0558 307° West 460 529 34,400 3,300 Level FlightAware UK
08:08AM 52.9580 -7.0790 307° West 444 511 36,000  Climbing FlightAware
08:08AM 52.9840 -7.1377 307° West 460 529 34,400 -2,640 Descending FlightAware UK
08:08AM 53.0060 -7.1869 307° West 458 527 34,400 4,560 Level FlightAware UK
08:08AM 53.0070 -7.1880 307° West 445 512 36,000  Climbing FlightAware
08:09AM 53.0280 -7.2362 307° West 458 527 34,400 -2,940 Descending FlightAware UK
08:09AM 53.0498 -7.2849 307° West 458 527 34,400 3,840 Level FlightAware UK
08:09AM 53.0550 -7.2960 307° West 444 511 36,000  Climbing FlightAware
08:09AM 53.0790 -7.3507 307° West 456 525 34,400 -2,760 Descending FlightAware UK
08:10AM 53.1011 -7.4000 307° West 458 527 34,400 3,420 Level FlightAware UK
08:10AM 53.1110 -7.4240 307° West 445 512 36,000  Climbing FlightAware
08:10AM 53.1374 -7.4827 307° West 458 527 34,400 -2,580 Descending FlightAware UK
08:11AM 53.1593 -7.5324 306° West 458 527 34,400 4,800 Level FlightAware UK
08:11AM 53.1560 -7.5250 306° West 445 512 36,000  Climbing FlightAware
08:11AM 53.1811 -7.5821 306° West 458 527 34,400 -2,880 Descending FlightAware UK
08:11AM 53.2030 -7.6318 306° West 458 527 34,400 3,300 Level FlightAware UK
08:11AM 53.2140 -7.6560 306° West 445 512 36,000  Climbing FlightAware
08:12AM 53.2394 -7.7151 306° West 460 529 34,400 -2,460 Descending FlightAware UK
08:12AM 53.2612 -7.7650 306° West 460 529 34,500 4,560 Climbing FlightAware UK
08:12AM 53.2620 -7.7670 306° West 445 512 36,000  Climbing FlightAware
08:12AM 53.2830 -7.8149 306° West 462 532 34,500 -2,760 Descending FlightAware UK
08:13AM 53.3048 -7.8649 306° West 460 529 34,500 3,600 Level FlightAware UK
08:13AM 53.3090 -7.8750 306° West 446 513 36,000  Climbing FlightAware
08:13AM 53.3336 -7.9317 306° West 462 532 34,500 -2,580 Descending FlightAware UK
08:13AM 53.3553 -7.9818 306° West 460 529 34,500 3,900 Level FlightAware UK
08:13AM 53.3550 -7.9810 306° West 445 512 36,000  Climbing FlightAware
08:14AM 53.3843 -8.0486 306° West 462 532 34,500 -2,460 Descending FlightAware UK
08:14AM 53.4059 -8.0988 306° West 460 529 34,500 3,420 Level FlightAware UK
08:14AM 53.4120 -8.1140 306° West 444 511 36,000  Climbing FlightAware
08:14AM 53.4346 -8.1658 306° West 458 527 34,500 -2,700 Descending FlightAware UK
08:15AM 53.4562 -8.2160 306° West 458 527 34,500  Level FlightAware UK
08:15AM 53.4778 -8.2664 306° West 458 527 34,500  Level FlightAware UK
08:15AM 53.4993 -8.3166 306° West 458 527 34,500 2,700 Level FlightAware UK
08:15AM 53.5130 -8.3500 306° West 444 511 36,000  Climbing FlightAware
08:16AM 53.5351 -8.4007 306° West 460 529 34,500 -2,760 Descending FlightAware UK
08:16AM 53.5566 -8.4511 306° West 460 529 34,500 3,600 Level FlightAware UK
08:16AM 53.5610 -8.4630 306° West 445 512 36,000  Climbing FlightAware
08:16AM 53.5849 -8.5181 306° West 460 529 34,500 -2,580 Descending FlightAware UK
08:17AM 53.6063 -8.5689 305° West 460 529 34,500  Level FlightAware UK
08:17AM 53.6277 -8.6197 305° West 460 529 34,500  Level FlightAware UK
08:17AM 53.6491 -8.6705 305° West 460 529 34,500  Level FlightAware UK
08:18AM 53.6706 -8.7214 305° West 462 532 34,500  Level FlightAware UK
08:18AM 53.6922 -8.7722 306° West 460 529 34,500  Level FlightAware UK
08:18AM 53.7136 -8.8230 305° West 462 532 34,500 3,900 Level FlightAware UK
08:18AM 53.7120 -8.8200 305° West 445 512 36,000  Climbing FlightAware
08:19AM 53.7420 -8.8912 305° West 460 529 34,500 -2,460 Descending FlightAware UK
08:19AM 53.7632 -8.9424 305° West 460 529 34,500 4,260 Level FlightAware UK
08:19AM 53.7600 -8.9360 305° West 445 512 36,000  Climbing FlightAware
08:19AM 53.7844 -8.9937 305° West 458 527 34,500  Descending FlightAware UK
08:20AM 53.8060 -9.0470 305° West 445 512 36,000 1,260 Climbing FlightAware
08:20AM 53.8600 -9.1770 305° West 445 512 36,000  Level FlightAware
08:21AM 53.9100 -9.2980 305° West 439 505 36,000  Level FlightAware
08:22AM 53.9990 -9.5170 305° West 440 506 36,000  Level FlightAware
08:24AM 54.0870 -9.7340 305° West 439 505 36,000  Level FlightAware
08:24AM 54.1360 -9.8550 305° West 441 507 36,000  Level FlightAware
08:25AM 54.1890 -9.9870 304° West 441 507 36,000  Level FlightAware
08:27AM 54.2970 -10.2590 304° West 442 509 36,000  Level FlightAware
08:27AM 54.3500 -10.3930 304° West 442 509 36,000  Level FlightAware
08:28AM 54.3960 -10.5100 304° West 442 509 36,000  Level FlightAware
08:30AM 54.5290 -10.8550 304° West 446 513 36,000  Level FlightAware
08:32AM 54.6680 -11.2180 304° West 440 506 36,000  Level FlightAware
08:34AM 54.8040 -11.5770 303° West 430 495 36,000  Level FlightAware
08:35AM 54.8490 -11.6980 303° West 429 494 36,000  Level FlightAware
08:36AM 54.8980 -11.8300 303° West 428 493 36,000  Level FlightAware
08:38AM 54.9481 -12.2206 283° West  Level Estimated
08:39AM 54.9730 -12.4195 282° West  Level Estimated
08:39AM 55.1060 -12.3960 282° West 425 489 36,000  Level FlightAware
08:40AM 55.1550 -12.5320 302° West 425 489 36,000  Level FlightAware
08:41AM 55.2160 -12.7020 302° West 424 488 36,000  Level FlightAware
08:41AM 55.2650 -12.8390 302° West 423 487 36,000  Level FlightAware
08:42AM 55.2980 -12.9340 301° West 424 488 36,000  Level FlightAware
08:43AM 55.3430 -13.0600 302° West 424 488 36,000  Level FlightAware
08:43AM 55.3840 -13.1810 301° West 424 488 36,000  Level FlightAware
08:44AM 55.4180 -13.2820 301° West 424 488 36,000  Level FlightAware
08:45AM 55.4610 -13.4070 301° West 424 488 36,000  Level FlightAware
08:46AM 55.4960 -13.5080 301° West 424 488 36,000  Level FlightAware
08:46AM 55.5300 -13.6090 301° West 424 488 36,000  Level FlightAware
08:47AM 55.5640 -13.7100 301° West 424 488 36,000  Level FlightAware
08:48AM 55.5990 -13.8120 301° West 424 488 36,000  Level FlightAware
08:48AM 55.6420 -13.9380 301° West 424 488 36,000  Level FlightAware
08:49AM 55.6760 -14.0390 301° West 424 488 36,000  Level FlightAware
08:50AM 55.7100 -14.1410 301° West 424 488 36,000  Level FlightAware
08:50AM 55.7450 -14.2420 302° West 424 488 36,000  Level FlightAware
08:51AM 55.7790 -14.3440 301° West 424 488 36,000  Level FlightAware
08:52AM 55.8220 -14.4710 301° West 424 488 36,000  Level FlightAware
08:53AM 55.8560 -14.5730 301° West 424 488 36,000  Level FlightAware
08:55AM 55.8940 -14.9773 280° West  Level Estimated
08:56AM 55.9128 -15.1831 279° West  Level Estimated
08:57AM 55.9312 -15.3892 279° West  Level Estimated
08:58AM 55.9493 -15.5955 279° West  Level Estimated
08:59AM 55.9672 -15.8024 279° West  Level Estimated
09:00AM 55.9846 -16.0095 279° West  Level Estimated
09:01AM 56.0017 -16.2167 278° West  Level Estimated
09:02AM 56.0185 -16.4242 278° West  Level Estimated
09:03AM 56.0349 -16.6318 278° West  Level Estimated
09:04AM 56.0510 -16.8396 278° West  Level Estimated
09:05AM 56.0667 -17.0476 278° West  Level Estimated
09:06AM 56.0821 -17.2558 278° West  Level Estimated
09:07AM 56.0971 -17.4641 277° West  Level Estimated
09:08AM 56.1117 -17.6726 277° West  Level Estimated
09:09AM 56.1260 -17.8812 277° West  Level Estimated
09:10AM 56.1400 -18.0900 277° West  Level Estimated
09:11AM 56.1536 -18.2989 277° West  Level Estimated
09:12AM 56.1669 -18.5080 277° West  Level Estimated
09:13AM 56.1798 -18.7172 276° West  Level Estimated
09:14AM 56.1923 -18.9265 276° West  Level Estimated
09:15AM 56.2045 -19.1360 276° West  Level Estimated
09:16AM 56.2164 -19.3457 276° West  Level Estimated
09:17AM 56.2279 -19.5554 276° West  Level Estimated
09:18AM 56.2390 -19.7653 276° West  Level Estimated
09:19AM 56.2498 -19.9753 275° West  Level Estimated
09:20AM 56.2602 -20.1854 275° West  Level Estimated
09:21AM 56.2703 -20.3957 275° West  Level Estimated
09:22AM 56.2800 -20.6060 275° West  Level Estimated
09:22AM 57.0000 -20.0000 285° West 418 481 36,000  Level ETMS Enhanced Traffic Management System
09:23AM 56.2893 -20.8165 275° West  Level Estimated
09:24AM 56.2983 -21.0261 274° West  Level Estimated
09:25AM 56.3069 -21.2358 274° West  Level Estimated
09:26AM 56.3151 -21.4456 274° West  Level Estimated
09:27AM 56.3230 -21.6555 274° West  Level Estimated
09:28AM 57.2255 -21.6605 283° West 418 481 36,000  Level FlightAware Transoceanic
09:29AM 57.2521 -21.8694 283° West 418 481 36,000  Level FlightAware Transoceanic
09:30AM 57.2784 -22.0787 283° West 418 481 36,000  Level FlightAware Transoceanic
09:31AM 57.3043 -22.2882 283° West 418 481 36,000  Level FlightAware Transoceanic
09:32AM 57.3299 -22.4981 283° West 418 481 36,000  Level FlightAware Transoceanic
09:33AM 57.3552 -22.7082 282° West 418 481 36,000  Level FlightAware Transoceanic
09:34AM 57.3801 -22.9186 282° West 418 481 36,000  Level FlightAware Transoceanic
09:35AM 57.4046 -23.1293 282° West 418 481 36,000  Level FlightAware Transoceanic
09:36AM 57.4288 -23.3403 282° West 418 481 36,000  Level FlightAware Transoceanic
09:37AM 57.4526 -23.5516 282° West 418 481 36,000  Level FlightAware Transoceanic
09:38AM 57.4761 -23.7631 282° West 418 481 36,000  Level FlightAware Transoceanic
09:39AM 57.4992 -23.9750 281° West 418 481 36,000  Level FlightAware Transoceanic
09:40AM 57.5220 -24.1870 281° West 418 481 36,000  Level FlightAware Transoceanic
09:41AM 57.5444 -24.3994 281° West 418 481 36,000  Level FlightAware Transoceanic
09:42AM 57.5665 -24.6120 281° West 418 481 36,000  Level FlightAware Transoceanic
09:43AM 57.5882 -24.8248 281° West 418 481 36,000  Level FlightAware Transoceanic
09:44AM 57.6095 -25.0379 280° West 418 481 36,000  Level FlightAware Transoceanic
09:45AM 57.6305 -25.2513 280° West 418 481 36,000  Level FlightAware Transoceanic
09:46AM 57.6511 -25.4649 280° West 418 481 36,000  Level FlightAware Transoceanic
09:47AM 57.6714 -25.6787 280° West 418 481 36,000  Level FlightAware Transoceanic
09:48AM 57.6913 -25.8928 280° West 418 481 36,000  Level FlightAware Transoceanic
09:49AM 57.7108 -26.1071 280° West 418 481 36,000  Level FlightAware Transoceanic
09:50AM 57.7300 -26.3216 279° West 418 481 36,000  Level FlightAware Transoceanic
09:51AM 57.7488 -26.5364 279° West 418 481 36,000  Level FlightAware Transoceanic
09:52AM 57.7673 -26.7514 279° West 418 481 36,000  Level FlightAware Transoceanic
09:53AM 57.7854 -26.9666 279° West 418 481 36,000  Level FlightAware Transoceanic
09:54AM 57.8031 -27.1820 279° West 418 481 36,000  Level FlightAware Transoceanic
09:55AM 57.8204 -27.3976 279° West 418 481 36,000  Level FlightAware Transoceanic
09:56AM 57.8374 -27.6135 278° West 418 481 36,000  Level FlightAware Transoceanic
09:57AM 57.8540 -27.8295 278° West 418 481 36,000  Level FlightAware Transoceanic
09:58AM 57.8703 -28.0457 278° West 418 481 36,000  Level FlightAware Transoceanic
09:59AM 57.8862 -28.2621 278° West 418 481 36,000  Level FlightAware Transoceanic
10:00AM 57.9017 -28.4788 278° West 418 481 36,000  Level FlightAware Transoceanic
10:01AM 57.9169 -28.6956 277° West 418 481 36,000  Level FlightAware Transoceanic
10:02AM 57.9316 -28.9125 277° West 418 481 36,000  Level FlightAware Transoceanic
10:03AM 57.9461 -29.1297 277° West 418 481 36,000  Level FlightAware Transoceanic
10:04AM 57.9601 -29.3470 277° West 418 481 36,000  Level FlightAware Transoceanic
10:05AM 57.9738 -29.5645 277° West 418 481 36,000  Level FlightAware Transoceanic
10:06AM 57.9871 -29.7822 276° West 418 481 36,000  Level FlightAware Transoceanic
10:07AM 57.9749 -30.0010 264° West  Level Estimated
10:08AM 57.9624 -30.2197 264° West  Level Estimated
10:09AM 57.9495 -30.4383 264° West  Level Estimated
10:09AM 58.0000 -30.0000 274° West 433 498 36,000  Level ETMS Enhanced Traffic Management System
10:10AM 57.9362 -30.6567 264° West  Level Estimated
10:11AM 57.9226 -30.8749 263° West  Level Estimated
10:12AM 57.9086 -31.0925 263° West  Level Estimated
10:13AM 57.8942 -31.3099 263° West  Level Estimated
10:14AM 57.8795 -31.5271 263° West  Level Estimated
10:15AM 58.0583 -31.8147 273° West 433 498 36,000  Level FlightAware Transoceanic
10:16AM 58.0638 -32.0419 273° West 433 498 36,000  Level FlightAware Transoceanic
10:17AM 58.0689 -32.2692 272° West 433 498 36,000  Level FlightAware Transoceanic
10:18AM 58.0735 -32.4966 272° West 433 498 36,000  Level FlightAware Transoceanic
10:19AM 58.0778 -32.7240 272° West 433 498 36,000  Level FlightAware Transoceanic
10:20AM 58.0816 -32.9514 272° West 433 498 36,000  Level FlightAware Transoceanic
10:21AM 58.0851 -33.1789 272° West 433 498 36,000  Level FlightAware Transoceanic
10:22AM 58.0881 -33.4065 271° West 433 498 36,000  Level FlightAware Transoceanic
10:23AM 58.0908 -33.6340 271° West 433 498 36,000  Level FlightAware Transoceanic
10:24AM 58.0930 -33.8617 271° West 433 498 36,000  Level FlightAware Transoceanic
10:25AM 58.0948 -34.0893 271° West 433 498 36,000  Level FlightAware Transoceanic
10:26AM 58.0963 -34.3170 271° West 433 498 36,000  Level FlightAware Transoceanic
10:27AM 58.0973 -34.5446 270° West 433 498 36,000  Level FlightAware Transoceanic
10:28AM 58.0979 -34.7723 270° West 433 498 36,000  Level FlightAware Transoceanic
10:29AM 58.0981 -35.0000 270° West 433 498 36,000  Level FlightAware Transoceanic
10:30AM 58.0979 -35.2277 270° West 433 498 36,000  Level FlightAware Transoceanic
10:31AM 58.0973 -35.4554 270° West 433 498 36,000  Level FlightAware Transoceanic
10:32AM 58.0963 -35.6830 269° West 433 498 36,000  Level FlightAware Transoceanic
10:33AM 58.0948 -35.9107 269° West 433 498 36,000  Level FlightAware Transoceanic
10:34AM 58.0930 -36.1383 269° West 433 498 36,000  Level FlightAware Transoceanic
10:35AM 58.0908 -36.3660 269° West 433 498 36,000  Level FlightAware Transoceanic
10:36AM 58.0881 -36.5935 269° West 433 498 36,000  Level FlightAware Transoceanic
10:36AM 58.0667 -36.6667 267° West 450 518 36,000  Level Gander Center
10:37AM 58.0851 -36.8211 268° West 433 498 36,000  Level FlightAware Transoceanic
10:38AM 58.0816 -37.0486 268° West 433 498 36,000  Level FlightAware Transoceanic
10:38AM 58.0667 -37.1333 270° West 450 518 36,000  Level Gander Center
10:39AM 58.0778 -37.2760 268° West 433 498 36,000  Level FlightAware Transoceanic
10:40AM 58.0735 -37.5034 268° West 433 498 36,000  Level FlightAware Transoceanic
10:40AM 58.0244 -37.4610 256° West  Level Estimated
10:41AM 58.0689 -37.7308 268° West 433 498 36,000  Level FlightAware Transoceanic
10:41AM 58.0500 -37.8333 256° West 450 518 36,000  Level Gander Center
10:42AM 58.0638 -37.9581 267° West 433 498 36,000  Level FlightAware Transoceanic
10:42AM 58.0500 -38.0667 270° West 450 518 36,000  Level Gander Center
10:43AM 58.0333 -38.3000 262° West 440 506 36,000  Level Gander Center
10:45AM 57.9874 -38.6256 255° West  Level Estimated
10:45AM 58.0167 -38.7667 255° West 440 506 36,000  Level Gander Center
10:46AM 58.0333 -39.0000 278° West 440 506 36,000  Level Gander Center
10:47AM 57.8211 -38.9471 256° West  Level Estimated
10:47AM 58.0167 -39.2000 261° West 440 506 36,000  Level Gander Center
10:48AM 58.0000 -39.4333 262° West 440 506 36,000  Level Gander Center
10:49AM 58.0000 -39.6667 270° West 440 506 36,000  Level Gander Center
10:50AM 57.9833 -39.9000 262° West 450 518 36,000  Level Gander Center
10:52AM 57.9644 -40.2338 254° West  Level FlightAware Approximate
10:56AM 57.7833 -41.2500 252° West 450 518 36,000  Level Gander Center
10:57AM 57.7500 -41.4667 254° West 450 518 36,000  Level Gander Center
10:58AM 57.7000 -41.6833 247° West 450 518 36,000  Level Gander Center
10:59AM 57.7257 -41.7243 254° West  Level FlightAware Approximate
10:59AM 57.6667 -41.9333 256° West 440 506 36,000  Level Gander Center
11:00AM 57.6902 -41.9356 253° West  Level FlightAware Approximate
11:01AM 57.6543 -42.1465 252° West  Level FlightAware Approximate
11:01AM 57.6123 -42.2571 253° West  Level FlightAware Approximate
11:02AM 57.6181 -42.3569 252° West  Level FlightAware Approximate
11:05AM 57.4333 -43.2000 251° West 440 506 36,000  Level Gander Center
11:06AM 57.4000 -43.4000 253° West 440 506 36,000  Level Gander Center
11:07AM 57.3500 -43.6167 247° West 440 506 36,000  Level Gander Center
11:08AM 57.3537 -43.7229 252° West  Level FlightAware Approximate
11:08AM 57.3167 -43.8500 255° West 440 506 36,000  Level Gander Center
11:09AM 57.3153 -43.9306 251° West  Level FlightAware Approximate
11:10AM 57.2767 -44.1379 251° West  Level FlightAware Approximate
11:10AM 57.2580 -44.1681 251° West  Level FlightAware Approximate
11:10AM 57.2333 -44.2667 251° West 440 506 36,000  Level Gander Center
11:11AM 57.2377 -44.3447 251° West  Level FlightAware Approximate
11:12AM 57.1740 -44.5836 251° West  Level FlightAware Approximate
11:13AM 57.1167 -44.8833 251° West 430 495 36,000  Level Gander Center
11:15AM 57.0558 -45.1982 251° West  Level FlightAware Approximate
11:15AM 57.0333 -45.3000 251° West 440 506 36,000  Level Gander Center
11:16AM 57.0000 -45.5000 253° West 440 506 36,000  Level Gander Center
11:17AM 56.9667 -45.7000 253° West 440 506 36,000  Level Gander Center
11:18AM 56.9000 -45.9167 241° Southwest 440 506 36,000  Level Gander Center
11:19AM 56.8929 -46.0174 251° West  Level FlightAware Approximate
11:20AM 56.8373 -46.2291 250° West  Level FlightAware Approximate
11:20AM 56.8333 -46.3167 250° West 430 495 36,000  Level Gander Center
11:21AM 56.8000 -46.5167 253° West 430 495 36,000  Level Gander Center
11:22AM 56.7500 -46.7167 246° West 430 495 36,000  Level Gander Center
11:24AM 56.6843 -47.0258 249° West  Level FlightAware Approximate
11:24AM 56.6500 -47.1167 249° West 420 483 36,000  Level Gander Center
11:26AM 56.5667 -47.5000 249° West 420 483 36,000  Level Gander Center
11:27AM 56.5333 -47.7000 253° West 420 483 36,000  Level Gander Center
11:28AM 56.4833 -47.9000 246° West 420 483 36,000  Level Gander Center
11:30AM 56.4159 -48.2057 248° West  Level FlightAware Approximate
11:32AM 56.3167 -48.5833 248° West 410 472 36,000  Level Gander Center
11:34AM 56.2243 -48.9537 246° West  Level Estimated
11:37AM 56.0987 -49.5877 248° West  Level FlightAware Approximate
11:41AM 55.8748 -50.3028 246° West  Level Estimated
11:42AM 55.8237 -50.4936 245° Southwest  Level Estimated
11:42AM 56.0000 -50.0000 250° West 419 482 36,000  Level ETMS Enhanced Traffic Management System
11:43AM 55.7723 -50.6838 244° Southwest  Level Estimated
11:44AM 55.7206 -50.8735 244° Southwest  Level Estimated
11:45AM 55.6685 -51.0628 244° Southwest  Level Estimated
11:46AM 55.6162 -51.2515 244° Southwest  Level Estimated
11:47AM 55.5636 -51.4397 244° Southwest  Level Estimated
11:48AM 55.6276 -51.7452 248° West 419 482 36,000  Level FlightAware Transoceanic
11:49AM 55.5847 -51.9370 248° West 419 482 36,000  Level FlightAware Transoceanic
11:50AM 55.5415 -52.1284 248° West 419 482 36,000  Level FlightAware Transoceanic
11:51AM 55.4980 -52.3194 248° West 419 482 36,000  Level FlightAware Transoceanic
11:52AM 55.4542 -52.5100 248° West 419 482 36,000  Level FlightAware Transoceanic
11:53AM 55.4101 -52.7001 248° West 419 482 36,000  Level FlightAware Transoceanic
11:54AM 55.3658 -52.8898 248° West 419 482 36,000  Level FlightAware Transoceanic
11:55AM 55.3211 -53.0791 247° West 419 482 36,000  Level FlightAware Transoceanic
11:55AM 55.3000 -53.0833 247° West 430 495 36,000  Level Gander Center
11:56AM 55.2761 -53.2680 247° West 419 482 36,000  Level FlightAware Transoceanic
11:57AM 55.2309 -53.4564 247° West 419 482 36,000  Level FlightAware Transoceanic
11:57AM 55.2018 -53.4004 242° Southwest  Level Estimated
11:57AM 55.2167 -53.4500 242° Southwest 430 495 36,000  Level Gander Center
11:58AM 55.1853 -53.6444 247° West 419 482 36,000  Level FlightAware Transoceanic
11:59AM 55.1395 -53.8320 247° West 419 482 36,000  Level FlightAware Transoceanic
12:00PM 55.0934 -54.0192 247° West 419 482 36,000  Level FlightAware Transoceanic
12:00PM 55.1451 -53.6775 241° Southwest  Level Estimated
12:05PM 54.8333 -54.9833 240° Southwest 420 483 36,000  Level Gander Center
12:06PM 54.8000 -55.1667 253° West 420 483 36,000  Level Gander Center
12:07PM 54.7363 -54.9362 241° Southwest  Level Estimated
12:08PM 54.6769 -55.1139 240° Southwest  Level Estimated
12:08PM 54.7000 -55.4833 241° Southwest 420 483 36,000  Level Moncton Center
12:09PM 54.6171 -55.2911 240° Southwest  Level Estimated
12:09PM 54.6500 -55.7000 248° West 420 483 36,000  Level Moncton Center
12:10PM 54.5573 -55.4674 240° Southwest  Level Estimated
12:10PM 54.6000 -55.8500 240° Southwest 420 483 36,000  Level Moncton Center
12:11PM 54.5333 -56.0333 238° Southwest 430 495 36,000  Level Moncton Center
12:12PM 54.4500 -56.2000 229° Southwest 430 495 36,000  Level Moncton Center
12:13PM 54.3833 -56.3500 233° Southwest 430 495 36,000  Level Moncton Center
12:14PM 54.3167 -56.5333 238° Southwest 430 495 36,000  Level Moncton Center
12:16PM 54.1667 -56.8500 231° Southwest 430 495 36,000  Level Moncton Center
12:17PM 54.1000 -57.0000 233° Southwest 430 495 36,000  Level Moncton Center
12:18PM 54.0333 -57.2000 240° Southwest 430 495 36,000  Level Moncton Center
12:20PM 53.8833 -57.5000 230° Southwest 420 483 36,000  Level Moncton Center
12:22PM 53.7647 -57.7837 235° Southwest  Level FlightAware Approximate
12:22PM 53.7333 -57.8333 235° Southwest 420 483 36,000  Level Gander Center
12:24PM 53.6000 -58.1333 233° Southwest 430 495 36,000  Level Moncton Center
12:25PM 53.5333 -58.3167 239° Southwest 430 495 36,000  Level Moncton Center
12:26PM 53.4667 -58.4667 233° Southwest 430 495 36,000  Level Moncton Center
12:27PM 53.4000 -58.6500 239° Southwest 430 495 36,000  Level Moncton Center
12:28PM 53.3333 -58.8000 233° Southwest 430 495 36,000  Level Moncton Center
12:29PM 53.2500 -58.9833 233° Southwest 430 495 36,000  Level Gander Center
12:30PM 53.2000 -59.1667 246° West 430 495 36,000  Level Gander Center
12:31PM 53.1333 -59.3333 236° Southwest 430 495 36,000  Level Gander Center
12:32PM 53.0500 -59.5000 230° Southwest 430 495 36,000  Level Gander Center
12:33PM 52.9833 -59.6500 234° Southwest 430 495 36,000  Level Gander Center
12:35PM 52.8500 -59.9500 234° Southwest 420 483 36,000  Level Gander Center
12:36PM 52.7833 -60.1167 237° Southwest 420 483 36,000  Level Gander Center
12:38PM 52.6333 -60.4500 234° Southwest 430 495 36,000  Level Gander Center
12:39PM 52.5833 -60.6000 241° Southwest 430 495 36,000  Level Gander Center
12:40PM 52.5167 -60.7333 231° Southwest 420 483 36,000  Level Moncton Center
12:42PM 52.3667 -61.0500 232° Southwest 420 483 36,000  Level Moncton Center
12:43PM 52.3167 -61.2000 241° Southwest 420 483 36,000  Level Moncton Center
12:44PM 52.2333 -61.3333 224° Southwest 410 472 36,000  Level Moncton Center
12:46PM 52.1142 -61.6065 235° Southwest  Level FlightAware Approximate
12:47PM 52.0333 -61.7833 235° Southwest 400 460 36,000  Level Moncton Center
12:48PM 51.9833 -61.9333 242° Southwest 400 460 36,000  Level Moncton Center
12:49PM 51.9167 -62.0667 231° Southwest 390 449 36,000  Level Moncton Center
12:50PM 51.8500 -62.2000 231° Southwest 390 449 36,000  Level Moncton Center
12:51PM 51.7667 -62.3500 228° Southwest 390 449 36,000  Level Moncton Center
12:52PM 51.7000 -62.4833 231° Southwest 390 449 36,000  Level Moncton Center
12:53PM 51.6333 -62.6500 237° Southwest 390 449 36,000  Level Moncton Center
12:54PM 51.5667 -62.7500 223° Southwest 390 449 36,000  Level Moncton Center
12:55PM 51.5000 -62.8833 231° Southwest 390 449 36,000  Level Moncton Center
12:56PM 51.4333 -63.0333 235° Southwest 390 449 36,000  Level Moncton Center
12:57PM 51.3667 -63.1833 235° Southwest 390 449 36,000  Level Gander Center
12:58PM 51.3000 -63.3167 231° Southwest 390 449 36,000  Level Gander Center
12:59PM 51.2333 -63.4667 235° Southwest 390 449 36,000  Level Gander Center
01:00PM 51.1833 -63.5667 231° Southwest 390 449 36,000  Level Moncton Center
01:03PM 50.9667 -64.0000 232° Southwest 390 449 36,000  Level Moncton Center
01:04PM 50.9000 -64.1333 232° Southwest 400 460 36,000  Level Moncton Center
01:05PM 50.8333 -64.2667 232° Southwest 400 460 36,000  Level Moncton Center
01:06PM 50.7500 -64.4000 225° Southwest 400 460 36,000  Level Gander Center
01:08PM 50.6167 -64.6667 232° Southwest 390 449 36,000  Level Moncton Center
01:09PM 50.5500 -64.8000 232° Southwest 390 449 36,000  Level Moncton Center
01:10PM 50.4833 -64.9167 228° Southwest 390 449 36,000  Level Moncton Center
01:11PM 50.4000 -65.0667 229° Southwest 390 449 36,000  Level Gander Center
01:14PM 50.2000 -65.4167 228° Southwest 390 449 36,000  Level Moncton Center
01:15PM 50.1167 -65.5667 229° Southwest 390 449 36,000  Level Moncton Center
01:16PM 50.0500 -65.6667 224° Southwest 390 449 36,000  Level Moncton Center
01:17PM 49.9833 -65.8333 238° Southwest 390 449 36,000  Level Moncton Center
01:18PM 49.9167 -65.9500 228° Southwest 390 449 36,000  Level Moncton Center
01:18PM 49.8833 -65.9667 198° South 390 449 36,000  Level Montreal Center
01:19PM 49.8167 -66.1000 232° Southwest 390 449 36,000  Level Montreal Center
01:20PM 49.7333 -66.2333 226° Southwest 390 449 36,000  Level Montreal Center
01:21PM 49.6667 -66.3667 232° Southwest 390 449 36,000  Level Montreal Center
01:22PM 49.6000 -66.4833 229° Southwest 390 449 36,000  Level Montreal Center
01:23PM 49.5333 -66.6000 229° Southwest 390 449 36,000  Level Montreal Center
01:25PM 49.4167 -66.8500 234° Southwest 400 460 36,000  Level Moncton Center
01:25PM 49.3833 -66.8500 180° South 400 460 36,000  Level Montreal Center
01:26PM 49.3167 -67.0000 236° Southwest 400 460 36,000  Level Montreal Center
01:28PM 49.1833 -67.2500 231° Southwest 400 460 36,000  Level Gander Center
01:29PM 49.1167 -67.3667 229° Southwest 410 472 36,000  Level Moncton Center
01:30PM 49.0333 -67.4833 223° Southwest 410 472 36,000  Level Moncton Center
01:32PM 48.8833 -67.7333 228° Southwest 410 472 36,000  Level Moncton Center
01:33PM 48.8000 -67.8833 230° Southwest 420 483 36,000  Level Moncton Center
01:34PM 48.7333 -68.0000 229° Southwest 420 483 36,000  Level Moncton Center
01:34PM 48.7000 -68.0333 213° Southwest 420 483 36,000  Level Montreal Center
01:35PM 48.6167 -68.1500 223° Southwest 420 483 36,000  Level Montreal Center
01:37PM 48.4833 -68.3833 229° Southwest 420 483 36,000  Level Moncton Center
01:43PM 47.9850 -69.2320 229° Southwest 430 495 36,000  Level FlightAware
01:44PM 47.9290 -69.3200 226° Southwest 430 495 36,000  Level FlightAware
01:44PM 47.8690 -69.4150 227° Southwest 430 495 36,000  Level FlightAware
01:45PM 47.8350 -69.4680 226° Southwest 430 495 36,000  Level FlightAware
01:46PM 47.7800 -69.5550 227° Southwest 432 497 36,000  Level FlightAware
01:46PM 47.7220 -69.6560 230° Southwest 432 497 36,000  Level FlightAware
01:47PM 47.6720 -69.7490 231° Southwest 431 496 36,000  Level FlightAware
01:48PM 47.6150 -69.8520 231° Southwest 433 498 36,000  Level FlightAware
01:48PM 47.5840 -69.9100 232° Southwest 434 499 36,000  Level FlightAware
01:49PM 47.5280 -70.0130 231° Southwest 436 502 36,000  Level FlightAware
01:50PM 47.4770 -70.1060 231° Southwest 437 503 36,000  Level FlightAware
01:50PM 47.4200 -70.2090 231° Southwest 437 503 36,000  Level FlightAware
01:51PM 47.3690 -70.3010 231° Southwest 436 502 36,000  Level FlightAware
01:52PM 47.3180 -70.3930 231° Southwest 437 503 36,000  Level FlightAware
01:52PM 47.2610 -70.4950 231° Southwest 437 503 36,000  Level FlightAware
01:53PM 47.2100 -70.5870 231° Southwest 437 503 36,000  Level FlightAware
01:54PM 47.1520 -70.6900 230° Southwest 439 505 36,000  Level FlightAware
01:54PM 47.1010 -70.7820 231° Southwest 439 505 36,000  Level FlightAware
01:55PM 47.0430 -70.8840 230° Southwest 441 507 36,000  Level FlightAware
01:56PM 46.9920 -70.9750 231° Southwest 441 507 36,000  Level FlightAware
01:57PM 46.9350 -71.0740 230° Southwest 443 510 36,000  Level FlightAware
01:57PM 46.8800 -71.1710 230° Southwest 443 510 36,000  Level FlightAware
01:58PM 46.8300 -71.2580 230° Southwest 444 511 36,000  Level FlightAware
01:59PM 46.7690 -71.3650 230° Southwest 445 512 36,000  Level FlightAware
01:59PM 46.7290 -71.4340 230° Southwest 445 512 36,000  Level FlightAware
02:00PM 46.6770 -71.5250 230° Southwest 445 512 36,000  Level FlightAware
02:01PM 46.6240 -71.6160 230° Southwest 446 513 36,000 -300 Level FlightAware
02:01PM 46.5630 -71.7170 229° Southwest 443 510 35,600 -900 Descending FlightAware
02:02PM 46.5030 -71.7990 223° Southwest 445 512 34,800 -1,980 Descending FlightAware
02:03PM 46.4420 -71.8780 222° Southwest 450 518 33,000 -2,880 Descending FlightAware
02:03PM 46.3720 -71.9680 222° Southwest 448 516 30,800 -2,760 Descending FlightAware
02:04PM 46.3110 -72.0460 221° Southwest 440 506 29,100 -2,580 Descending FlightAware
02:05PM 46.2510 -72.1230 222° Southwest 431 496 27,400 -2,580 Descending FlightAware
02:05PM 46.1850 -72.2080 222° Southwest 420 483 25,500 -2,580 Descending FlightAware
02:06PM 46.1270 -72.2810 221° Southwest 412 474 23,800 -2,580 Descending FlightAware
02:07PM 46.0710 -72.3520 221° Southwest 404 465 22,100 -2,580 Descending FlightAware
02:08PM 46.0100 -72.4300 222° Southwest 396 456 20,200 -2,580 Descending FlightAware
02:08PM 45.9550 -72.4990 221° Southwest 388 447 18,500 -2,640 Descending FlightAware
02:09PM 45.8940 -72.5760 221° Southwest 381 438 16,500 -2,580 Descending FlightAware
02:10PM 45.8420 -72.6410 221° Southwest 372 428 14,900 -2,400 Descending FlightAware
02:10PM 45.7910 -72.7050 221° Southwest 362 417 13,300 -2,280 Descending FlightAware
02:11PM 45.7460 -72.7840 231° Southwest 350 403 11,700 -2,100 Descending FlightAware
02:12PM 45.7340 -72.8730 259° West 339 390 10,400 -1,320 Descending FlightAware
02:12PM 45.7240 -72.9690 262° West 290 334 9,900 -600 Descending FlightAware
02:13PM 45.7220 -72.9930 263° West 278 320 9,800 -900 Descending FlightAware
02:13PM 45.7170 -73.0390 261° West 273 314 9,300 -1,440 Descending FlightAware
02:14PM 45.7120 -73.0940 263° West 271 312 8,500 -1,560 Descending FlightAware
02:14PM 45.7060 -73.1370 259° West 268 308 7,900 -1,560 Descending FlightAware
02:15PM 45.6980 -73.1870 257° West 263 303 7,100 -1,500 Descending FlightAware
02:15PM 45.6890 -73.2380 256° West 262 302 6,400 -1,440 Descending FlightAware
02:15PM 45.6820 -73.2800 257° West 257 296 5,800 -1,440 Descending FlightAware
02:16PM 45.6740 -73.3300 257° West 252 290 5,100 -1,200 Descending FlightAware
02:16PM 45.6700 -73.3530 256° West 250 288 4,900 -840 Descending FlightAware
02:17PM 45.6620 -73.4000 256° West 242 278 4,500 -600 Descending FlightAware
02:17PM 45.6560 -73.4300 254° West 237 273 4,400 -600 Descending FlightAware
02:18PM 45.6470 -73.4840 257° West 227 261 4,000 -720 Descending FlightAware
02:18PM 45.6410 -73.5190 256° West 225 259 3,700 -600 Descending FlightAware
02:18PM 45.6320 -73.5400 239° Southwest 221 254 3,600 -480 Descending FlightAware
02:19PM 45.6150 -73.5620 222° Southwest 213 245 3,400 -780 Descending FlightAware
02:19PM 45.5940 -73.5900 223° Southwest 201 231 2,900 -1,020 Descending FlightAware
02:20PM 45.5740 -73.6170 223° Southwest 189 217 2,400 -1,020 Descending FlightAware
02:20PM 45.5570 -73.6390 222° Southwest 191 220 2,000 -960 Descending FlightAware
02:21PM 45.5420 -73.6590 223° Southwest 177 204 1,600 -1,020 Descending FlightAware
02:21PM 45.5250 -73.6810 222° Southwest 165 190 1,100 -900 Descending FlightAware
02:22PM 45.5100 -73.7010 223° Southwest 146 168 700 -840 Descending FlightAware
02:22PM 45.4960 -73.7200 224° Southwest 139 160 300 -720 Descending FlightAware
02:22PM 45.4900 -73.7280 223° Southwest 139 160 200 -420 Descending FlightAware
02:23PM 45.4830 -73.7360 219° Southwest 140 161 -840 Descending FlightAware